sensor_id;sensor_type;location;lat;lon;timestamp;temperature;humidity
18408;DHT22;9330;52.210;21.174;2023-07-20T00:00:06;16.00;99.90
18408;DHT22;9330;52.210;21.174;2023-07-20T00:02:34;16.00;99.90
18408;DHT22;9330;52.210;21.174;2023-07-20T00:05:00;16.00;99.90
18408;DHT22;9330;52.210;21.174;2023-07-20T00:07:27;15.90;99.90
18408;DHT22;9330;52.210;21.174;2023-07-20T00:09:54;16.00;99.90
18408;DHT22;9330;52.210;21.174;2023-07-20T00:12:21;15.90;99.90
18408;DHT22;9330;52.210;21.174;2023-07-20T00:14:49;15.80;99.90
18408;DHT22;9330;52.210;21.174;2023-07-20T00:17:19;15.90;99.90
18408;DHT22;9330;52.210;21.174;2023-07-20T00:19:49;15.70;99.90
18408;DHT22;9330;52.210;21.174;2023-07-20T00:22:16;15.70;99.90
18408;DHT22;9330;52.210;21.174;2023-07-20T00:24:43;15.70;99.90
18408;DHT22;9330;52.210;21.174;2023-07-20T00:27:10;15.70;99.90
18408;DHT22;9330;52.210;21.174;2023-07-20T00:29:37;15.60;99.90
18408;DHT22;9330;52.210;21.174;2023-07-20T00:32:06;15.60;99.90
18408;DHT22;9330;52.210;21.174;2023-07-20T00:34:33;15.60;99.90
18408;DHT22;9330;52.210;21.174;2023-07-20T00:37:00;15.60;99.90
18408;DHT22;9330;52.210;21.174;2023-07-20T00:39:28;15.60;99.90
18408;DHT22;9330;52.210;21.174;2023-07-20T00:41:55;15.60;99.90
18408;DHT22;9330;52.210;21.174;2023-07-20T00:44:22;15.60;99.90
18408;DHT22;9330;52.210;21.174;2023-07-20T00:46:49;15.60;99.90
18408;DHT22;9330;52.210;21.174;2023-07-20T00:49:18;15.60;99.90
18408;DHT22;9330;52.210;21.174;2023-07-20T00:51:47;15.50;99.90
18408;DHT22;9330;52.210;21.174;2023-07-20T00:54:14;15.60;99.90
18408;DHT22;9330;52.210;21.174;2023-07-20T00:56:41;15.60;99.90
18408;DHT22;9330;52.210;21.174;2023-07-20T00:59:09;15.60;99.90
18408;DHT22;9330;52.210;21.174;2023-07-20T01:01:36;15.70;99.90
18408;DHT22;9330;52.210;21.174;2023-07-20T01:04:04;15.60;99.90
18408;DHT22;9330;52.210;21.174;2023-07-20T01:06:39;15.60;99.90
18408;DHT22;9330;52.210;21.174;2023-07-20T01:09:13;15.50;99.90
18408;DHT22;9330;52.210;21.174;2023-07-20T01:11:51;15.70;99.90
18408;DHT22;9330;52.210;21.174;2023-07-20T01:14:21;15.70;99.90
18408;DHT22;9330;52.210;21.174;2023-07-20T01:16:48;15.60;99.90
18408;DHT22;9330;52.210;21.174;2023-07-20T01:19:17;15.60;99.90
18408;DHT22;9330;52.210;21.174;2023-07-20T01:21:51;15.60;99.90
18408;DHT22;9330;52.210;21.174;2023-07-20T01:24:41;15.60;99.90
18408;DHT22;9330;52.210;21.174;2023-07-20T01:30:43;15.60;99.90
18408;DHT22;9330;52.210;21.174;2023-07-20T01:33:16;15.60;99.90
18408;DHT22;9330;52.210;21.174;2023-07-20T01:35:45;15.60;99.90
18408;DHT22;9330;52.210;21.174;2023-07-20T01:38:13;15.60;99.90
18408;DHT22;9330;52.210;21.174;2023-07-20T01:40:41;15.60;99.90
18408;DHT22;9330;52.210;21.174;2023-07-20T01:43:08;15.50;99.90
18408;DHT22;9330;52.210;21.174;2023-07-20T01:45:35;15.40;99.90
18408;DHT22;9330;52.210;21.174;2023-07-20T01:48:03;15.40;99.90
18408;DHT22;9330;52.210;21.174;2023-07-20T01:50:32;15.40;99.90
18408;DHT22;9330;52.210;21.174;2023-07-20T01:53:00;15.40;99.90
18408;DHT22;9330;52.210;21.174;2023-07-20T01:55:27;15.30;99.90
18408;DHT22;9330;52.210;21.174;2023-07-20T01:57:55;15.30;99.90
18408;DHT22;9330;52.210;21.174;2023-07-20T02:00:22;15.30;99.90
18408;DHT22;9330;52.210;21.174;2023-07-20T02:02:51;15.30;99.90
18408;DHT22;9330;52.210;21.174;2023-07-20T02:05:18;15.40;99.90
18408;DHT22;9330;52.210;21.174;2023-07-20T02:07:46;15.30;99.90
18408;DHT22;9330;52.210;21.174;2023-07-20T02:10:13;15.30;99.90
18408;DHT22;9330;52.210;21.174;2023-07-20T02:12:40;15.30;99.90
18408;DHT22;9330;52.210;21.174;2023-07-20T02:15:08;15.30;99.90
18408;DHT22;9330;52.210;21.174;2023-07-20T02:17:35;15.30;99.90
18408;DHT22;9330;52.210;21.174;2023-07-20T02:20:03;15.30;99.90
18408;DHT22;9330;52.210;21.174;2023-07-20T02:22:30;15.40;99.90
18408;DHT22;9330;52.210;21.174;2023-07-20T02:24:58;15.30;99.90
18408;DHT22;9330;52.210;21.174;2023-07-20T02:27:25;15.30;99.90
18408;DHT22;9330;52.210;21.174;2023-07-20T02:29:53;15.30;99.90
18408;DHT22;9330;52.210;21.174;2023-07-20T02:32:20;15.30;99.90
18408;DHT22;9330;52.210;21.174;2023-07-20T02:34:47;15.30;99.90
18408;DHT22;9330;52.210;21.174;2023-07-20T02:37:14;15.30;99.90
18408;DHT22;9330;52.210;21.174;2023-07-20T02:39:41;15.30;99.90
18408;DHT22;9330;52.210;21.174;2023-07-20T02:42:09;15.30;99.90
18408;DHT22;9330;52.210;21.174;2023-07-20T02:44:36;15.30;99.90
18408;DHT22;9330;52.210;21.174;2023-07-20T02:47:03;15.30;99.90
18408;DHT22;9330;52.210;21.174;2023-07-20T02:49:31;15.30;99.90
18408;DHT22;9330;52.210;21.174;2023-07-20T02:51:58;15.30;99.90
18408;DHT22;9330;52.210;21.174;2023-07-20T02:54:25;15.20;99.90
18408;DHT22;9330;52.210;21.174;2023-07-20T02:56:52;15.30;99.90
18408;DHT22;9330;52.210;21.174;2023-07-20T02:59:20;15.30;99.90
18408;DHT22;9330;52.210;21.174;2023-07-20T03:01:47;15.20;99.90
18408;DHT22;9330;52.210;21.174;2023-07-20T03:04:14;15.20;99.90
18408;DHT22;9330;52.210;21.174;2023-07-20T03:06:42;15.20;99.90
18408;DHT22;9330;52.210;21.174;2023-07-20T03:09:09;15.20;99.90
18408;DHT22;9330;52.210;21.174;2023-07-20T03:11:36;15.20;99.90
18408;DHT22;9330;52.210;21.174;2023-07-20T03:14:03;15.20;99.90
18408;DHT22;9330;52.210;21.174;2023-07-20T03:16:31;15.20;99.90
18408;DHT22;9330;52.210;21.174;2023-07-20T03:18:59;15.20;99.90
18408;DHT22;9330;52.210;21.174;2023-07-20T03:21:26;15.20;99.90
18408;DHT22;9330;52.210;21.174;2023-07-20T03:23:53;15.30;99.90
18408;DHT22;9330;52.210;21.174;2023-07-20T03:26:20;15.30;99.90
18408;DHT22;9330;52.210;21.174;2023-07-20T03:28:48;15.30;99.90
18408;DHT22;9330;52.210;21.174;2023-07-20T03:31:15;15.30;99.90
18408;DHT22;9330;52.210;21.174;2023-07-20T03:33:44;15.30;99.90
18408;DHT22;9330;52.210;21.174;2023-07-20T03:36:11;15.30;99.90
18408;DHT22;9330;52.210;21.174;2023-07-20T03:38:38;15.40;99.90
18408;DHT22;9330;52.210;21.174;2023-07-20T03:41:05;15.40;99.90
18408;DHT22;9330;52.210;21.174;2023-07-20T03:43:32;15.40;99.90
18408;DHT22;9330;52.210;21.174;2023-07-20T03:45:59;15.40;99.90
18408;DHT22;9330;52.210;21.174;2023-07-20T03:48:26;15.40;99.90
18408;DHT22;9330;52.210;21.174;2023-07-20T03:50:54;15.50;99.90
18408;DHT22;9330;52.210;21.174;2023-07-20T03:53:21;15.50;99.90
18408;DHT22;9330;52.210;21.174;2023-07-20T03:55:50;15.50;99.90
18408;DHT22;9330;52.210;21.174;2023-07-20T03:58:18;15.50;99.90
18408;DHT22;9330;52.210;21.174;2023-07-20T04:00:45;15.60;99.90
18408;DHT22;9330;52.210;21.174;2023-07-20T04:03:13;15.60;99.90
18408;DHT22;9330;52.210;21.174;2023-07-20T04:05:40;15.60;99.90
18408;DHT22;9330;52.210;21.174;2023-07-20T04:08:09;15.60;99.90
18408;DHT22;9330;52.210;21.174;2023-07-20T04:10:37;15.60;99.90
18408;DHT22;9330;52.210;21.174;2023-07-20T04:13:04;15.60;99.90
18408;DHT22;9330;52.210;21.174;2023-07-20T04:15:31;15.60;99.90
18408;DHT22;9330;52.210;21.174;2023-07-20T04:17:58;15.60;99.90
18408;DHT22;9330;52.210;21.174;2023-07-20T04:20:26;15.60;99.90
18408;DHT22;9330;52.210;21.174;2023-07-20T04:22:53;15.60;99.90
18408;DHT22;9330;52.210;21.174;2023-07-20T04:25:22;15.60;99.90
18408;DHT22;9330;52.210;21.174;2023-07-20T04:27:49;15.60;99.90
18408;DHT22;9330;52.210;21.174;2023-07-20T04:30:17;15.50;99.90
18408;DHT22;9330;52.210;21.174;2023-07-20T04:32:47;15.70;99.90
18408;DHT22;9330;52.210;21.174;2023-07-20T04:35:18;15.60;99.90
18408;DHT22;9330;52.210;21.174;2023-07-20T04:37:45;15.60;99.90
18408;DHT22;9330;52.210;21.174;2023-07-20T04:40:15;15.60;99.90
18408;DHT22;9330;52.210;21.174;2023-07-20T04:42:43;15.60;99.90
18408;DHT22;9330;52.210;21.174;2023-07-20T04:45:10;15.60;99.90
18408;DHT22;9330;52.210;21.174;2023-07-20T04:47:38;15.60;99.90
18408;DHT22;9330;52.210;21.174;2023-07-20T04:50:06;15.70;99.90
18408;DHT22;9330;52.210;21.174;2023-07-20T04:52:33;15.60;99.90
18408;DHT22;9330;52.210;21.174;2023-07-20T04:55:00;15.60;99.90
18408;DHT22;9330;52.210;21.174;2023-07-20T04:57:30;15.60;99.90
18408;DHT22;9330;52.210;21.174;2023-07-20T04:59:58;15.70;99.90
18408;DHT22;9330;52.210;21.174;2023-07-20T05:02:26;15.60;99.90
18408;DHT22;9330;52.210;21.174;2023-07-20T05:04:53;15.70;99.90
18408;DHT22;9330;52.210;21.174;2023-07-20T05:07:20;15.70;99.90
18408;DHT22;9330;52.210;21.174;2023-07-20T05:09:47;15.70;99.90
18408;DHT22;9330;52.210;21.174;2023-07-20T05:12:14;15.70;99.90
18408;DHT22;9330;52.210;21.174;2023-07-20T05:14:41;15.70;99.90
18408;DHT22;9330;52.210;21.174;2023-07-20T05:17:10;15.60;99.90
18408;DHT22;9330;52.210;21.174;2023-07-20T05:19:37;15.70;99.90
18408;DHT22;9330;52.210;21.174;2023-07-20T05:22:04;15.80;99.90
18408;DHT22;9330;52.210;21.174;2023-07-20T05:24:31;15.90;99.90
18408;DHT22;9330;52.210;21.174;2023-07-20T05:26:58;15.90;99.90
18408;DHT22;9330;52.210;21.174;2023-07-20T05:29:25;15.90;99.90
18408;DHT22;9330;52.210;21.174;2023-07-20T05:31:52;15.90;99.90
18408;DHT22;9330;52.210;21.174;2023-07-20T05:34:21;16.00;99.90
18408;DHT22;9330;52.210;21.174;2023-07-20T05:36:48;16.00;99.90
18408;DHT22;9330;52.210;21.174;2023-07-20T05:39:16;16.20;99.90
18408;DHT22;9330;52.210;21.174;2023-07-20T05:41:43;16.30;99.90
18408;DHT22;9330;52.210;21.174;2023-07-20T05:44:10;16.30;99.90
18408;DHT22;9330;52.210;21.174;2023-07-20T05:46:37;16.30;99.90
18408;DHT22;9330;52.210;21.174;2023-07-20T05:49:04;16.40;99.90
18408;DHT22;9330;52.210;21.174;2023-07-20T05:51:32;16.40;99.90
18408;DHT22;9330;52.210;21.174;2023-07-20T05:53:59;16.50;99.90
18408;DHT22;9330;52.210;21.174;2023-07-20T05:56:25;16.50;99.90
18408;DHT22;9330;52.210;21.174;2023-07-20T05:58:52;16.60;99.90
18408;DHT22;9330;52.210;21.174;2023-07-20T06:01:19;16.60;99.90
18408;DHT22;9330;52.210;21.174;2023-07-20T06:03:46;16.60;99.90
18408;DHT22;9330;52.210;21.174;2023-07-20T06:06:13;16.60;99.90
18408;DHT22;9330;52.210;21.174;2023-07-20T06:08:41;16.70;99.90
18408;DHT22;9330;52.210;21.174;2023-07-20T06:11:09;16.70;99.90
18408;DHT22;9330;52.210;21.174;2023-07-20T06:13:36;16.80;99.90
18408;DHT22;9330;52.210;21.174;2023-07-20T06:16:03;16.70;99.90
18408;DHT22;9330;52.210;21.174;2023-07-20T06:18:30;16.80;99.90
18408;DHT22;9330;52.210;21.174;2023-07-20T06:20:57;16.80;99.90
18408;DHT22;9330;52.210;21.174;2023-07-20T06:23:25;16.90;99.90
18408;DHT22;9330;52.210;21.174;2023-07-20T06:25:53;17.00;99.90
18408;DHT22;9330;52.210;21.174;2023-07-20T06:28:19;16.90;99.90
18408;DHT22;9330;52.210;21.174;2023-07-20T06:30:46;17.00;99.90
18408;DHT22;9330;52.210;21.174;2023-07-20T06:33:13;17.00;99.90
18408;DHT22;9330;52.210;21.174;2023-07-20T06:35:41;17.10;99.90
18408;DHT22;9330;52.210;21.174;2023-07-20T06:38:09;17.10;99.90
18408;DHT22;9330;52.210;21.174;2023-07-20T06:40:36;17.20;99.90
18408;DHT22;9330;52.210;21.174;2023-07-20T06:43:04;17.10;99.90
18408;DHT22;9330;52.210;21.174;2023-07-20T06:45:31;17.10;99.90
18408;DHT22;9330;52.210;21.174;2023-07-20T06:47:57;17.20;99.90
18408;DHT22;9330;52.210;21.174;2023-07-20T06:50:24;17.20;99.90
18408;DHT22;9330;52.210;21.174;2023-07-20T06:52:51;17.10;99.90
18408;DHT22;9330;52.210;21.174;2023-07-20T06:55:18;17.10;99.90
18408;DHT22;9330;52.210;21.174;2023-07-20T06:57:45;17.10;99.90
18408;DHT22;9330;52.210;21.174;2023-07-20T07:00:14;17.00;99.90
18408;DHT22;9330;52.210;21.174;2023-07-20T07:02:41;17.10;99.90
18408;DHT22;9330;52.210;21.174;2023-07-20T07:05:08;17.10;99.90
18408;DHT22;9330;52.210;21.174;2023-07-20T07:07:34;17.20;99.90
18408;DHT22;9330;52.210;21.174;2023-07-20T07:10:02;17.20;99.90
18408;DHT22;9330;52.210;21.174;2023-07-20T07:12:31;17.20;99.90
18408;DHT22;9330;52.210;21.174;2023-07-20T07:14:58;17.20;99.90
18408;DHT22;9330;52.210;21.174;2023-07-20T07:17:26;17.20;99.90
18408;DHT22;9330;52.210;21.174;2023-07-20T07:19:54;17.20;99.90
18408;DHT22;9330;52.210;21.174;2023-07-20T07:22:21;17.00;99.90
18408;DHT22;9330;52.210;21.174;2023-07-20T07:24:48;17.10;99.90
18408;DHT22;9330;52.210;21.174;2023-07-20T07:27:15;17.10;99.90
18408;DHT22;9330;52.210;21.174;2023-07-20T07:29:42;17.10;99.90
18408;DHT22;9330;52.210;21.174;2023-07-20T07:32:10;17.10;99.90
18408;DHT22;9330;52.210;21.174;2023-07-20T07:34:38;17.10;99.90
18408;DHT22;9330;52.210;21.174;2023-07-20T07:37:05;17.10;99.90
18408;DHT22;9330;52.210;21.174;2023-07-20T07:39:32;17.00;99.90
18408;DHT22;9330;52.210;21.174;2023-07-20T07:41:59;17.00;99.90
18408;DHT22;9330;52.210;21.174;2023-07-20T07:44:26;17.00;99.90
18408;DHT22;9330;52.210;21.174;2023-07-20T07:46:53;17.00;99.90
18408;DHT22;9330;52.210;21.174;2023-07-20T07:49:19;17.00;99.90
18408;DHT22;9330;52.210;21.174;2023-07-20T07:51:48;16.90;99.90
18408;DHT22;9330;52.210;21.174;2023-07-20T07:54:14;16.90;99.90
18408;DHT22;9330;52.210;21.174;2023-07-20T07:56:41;16.90;99.90
18408;DHT22;9330;52.210;21.174;2023-07-20T07:59:09;16.80;99.90
18408;DHT22;9330;52.210;21.174;2023-07-20T08:01:36;16.70;99.90
18408;DHT22;9330;52.210;21.174;2023-07-20T08:04:03;16.80;99.90
18408;DHT22;9330;52.210;21.174;2023-07-20T08:06:30;16.70;99.90
18408;DHT22;9330;52.210;21.174;2023-07-20T08:08:59;16.60;99.90
18408;DHT22;9330;52.210;21.174;2023-07-20T08:11:26;16.60;99.90
18408;DHT22;9330;52.210;21.174;2023-07-20T08:13:53;16.60;99.90
18408;DHT22;9330;52.210;21.174;2023-07-20T08:16:19;16.70;99.90
18408;DHT22;9330;52.210;21.174;2023-07-20T08:18:46;16.60;99.90
18408;DHT22;9330;52.210;21.174;2023-07-20T08:21:13;16.60;99.90
18408;DHT22;9330;52.210;21.174;2023-07-20T08:23:40;16.60;99.90
18408;DHT22;9330;52.210;21.174;2023-07-20T08:26:08;16.40;99.90
18408;DHT22;9330;52.210;21.174;2023-07-20T08:28:35;16.50;99.90
18408;DHT22;9330;52.210;21.174;2023-07-20T08:31:03;16.50;99.90
18408;DHT22;9330;52.210;21.174;2023-07-20T08:33:31;16.50;99.90
18408;DHT22;9330;52.210;21.174;2023-07-20T08:36:00;16.50;99.90
18408;DHT22;9330;52.210;21.174;2023-07-20T08:38:31;16.60;99.90
18408;DHT22;9330;52.210;21.174;2023-07-20T08:40:58;16.40;99.90
18408;DHT22;9330;52.210;21.174;2023-07-20T08:43:28;16.40;99.90
18408;DHT22;9330;52.210;21.174;2023-07-20T08:45:57;16.30;99.90
18408;DHT22;9330;52.210;21.174;2023-07-20T08:48:24;16.30;99.90
18408;DHT22;9330;52.210;21.174;2023-07-20T08:50:54;16.30;99.90
18408;DHT22;9330;52.210;21.174;2023-07-20T08:53:21;16.30;99.90
18408;DHT22;9330;52.210;21.174;2023-07-20T08:55:50;16.30;99.90
18408;DHT22;9330;52.210;21.174;2023-07-20T08:58:17;16.20;99.90
18408;DHT22;9330;52.210;21.174;2023-07-20T09:00:46;16.30;99.90
18408;DHT22;9330;52.210;21.174;2023-07-20T09:03:17;16.20;99.90
18408;DHT22;9330;52.210;21.174;2023-07-20T09:05:44;16.20;99.90
18408;DHT22;9330;52.210;21.174;2023-07-20T09:08:11;16.10;99.90
18408;DHT22;9330;52.210;21.174;2023-07-20T09:10:38;16.10;99.90
18408;DHT22;9330;52.210;21.174;2023-07-20T09:13:05;16.10;99.90
18408;DHT22;9330;52.210;21.174;2023-07-20T09:15:32;16.10;99.90
18408;DHT22;9330;52.210;21.174;2023-07-20T09:18:02;16.20;99.90
18408;DHT22;9330;52.210;21.174;2023-07-20T09:20:32;16.30;99.90
18408;DHT22;9330;52.210;21.174;2023-07-20T09:23:00;16.30;99.90
18408;DHT22;9330;52.210;21.174;2023-07-20T09:25:31;16.30;99.90
18408;DHT22;9330;52.210;21.174;2023-07-20T09:28:02;16.40;99.90
18408;DHT22;9330;52.210;21.174;2023-07-20T09:30:29;16.40;99.90
18408;DHT22;9330;52.210;21.174;2023-07-20T09:32:56;16.40;99.90
18408;DHT22;9330;52.210;21.174;2023-07-20T09:35:25;16.40;99.90
18408;DHT22;9330;52.210;21.174;2023-07-20T09:37:54;16.40;99.90
18408;DHT22;9330;52.210;21.174;2023-07-20T09:40:24;16.40;99.90
18408;DHT22;9330;52.210;21.174;2023-07-20T09:42:52;16.60;99.90
18408;DHT22;9330;52.210;21.174;2023-07-20T09:45:28;16.70;99.90
18408;DHT22;9330;52.210;21.174;2023-07-20T09:48:03;16.80;99.90
18408;DHT22;9330;52.210;21.174;2023-07-20T09:50:31;16.90;99.90
18408;DHT22;9330;52.210;21.174;2023-07-20T09:52:58;17.10;99.90
18408;DHT22;9330;52.210;21.174;2023-07-20T09:55:27;17.10;99.90
18408;DHT22;9330;52.210;21.174;2023-07-20T09:57:56;17.10;99.90
18408;DHT22;9330;52.210;21.174;2023-07-20T10:00:23;17.20;99.90
18408;DHT22;9330;52.210;21.174;2023-07-20T10:02:51;17.30;99.90
18408;DHT22;9330;52.210;21.174;2023-07-20T10:05:19;17.50;99.90
18408;DHT22;9330;52.210;21.174;2023-07-20T10:07:50;17.70;99.90
18408;DHT22;9330;52.210;21.174;2023-07-20T10:10:18;17.80;99.90
18408;DHT22;9330;52.210;21.174;2023-07-20T10:12:47;17.90;99.90
18408;DHT22;9330;52.210;21.174;2023-07-20T10:15:19;18.00;99.90
18408;DHT22;9330;52.210;21.174;2023-07-20T10:17:56;18.00;99.90
18408;DHT22;9330;52.210;21.174;2023-07-20T10:20:25;18.20;99.90
18408;DHT22;9330;52.210;21.174;2023-07-20T10:22:56;18.10;99.90
18408;DHT22;9330;52.210;21.174;2023-07-20T10:25:23;18.10;99.90
18408;DHT22;9330;52.210;21.174;2023-07-20T10:27:51;18.10;99.90
18408;DHT22;9330;52.210;21.174;2023-07-20T10:30:18;18.00;99.90
18408;DHT22;9330;52.210;21.174;2023-07-20T10:32:47;18.20;99.90
18408;DHT22;9330;52.210;21.174;2023-07-20T10:35:16;18.20;99.90
18408;DHT22;9330;52.210;21.174;2023-07-20T10:37:50;18.20;99.90
18408;DHT22;9330;52.210;21.174;2023-07-20T10:40:27;18.10;99.90
18408;DHT22;9330;52.210;21.174;2023-07-20T10:43:00;18.10;99.90
18408;DHT22;9330;52.210;21.174;2023-07-20T10:45:34;18.10;99.90
18408;DHT22;9330;52.210;21.174;2023-07-20T10:48:05;18.00;99.90
18408;DHT22;9330;52.210;21.174;2023-07-20T10:50:33;18.00;99.90
18408;DHT22;9330;52.210;21.174;2023-07-20T10:53:11;17.90;99.90
18408;DHT22;9330;52.210;21.174;2023-07-20T10:55:40;18.00;99.90
18408;DHT22;9330;52.210;21.174;2023-07-20T10:58:09;17.90;99.90
18408;DHT22;9330;52.210;21.174;2023-07-20T11:00:38;18.00;99.90
18408;DHT22;9330;52.210;21.174;2023-07-20T11:03:05;18.00;99.90
18408;DHT22;9330;52.210;21.174;2023-07-20T11:05:37;18.00;99.90
18408;DHT22;9330;52.210;21.174;2023-07-20T11:08:06;18.10;99.90
18408;DHT22;9330;52.210;21.174;2023-07-20T11:10:33;18.30;99.90
18408;DHT22;9330;52.210;21.174;2023-07-20T11:13:21;18.40;99.90
18408;DHT22;9330;52.210;21.174;2023-07-20T11:16:04;18.70;99.90
18408;DHT22;9330;52.210;21.174;2023-07-20T11:18:34;19.00;99.90
18408;DHT22;9330;52.210;21.174;2023-07-20T11:21:10;19.20;99.90
18408;DHT22;9330;52.210;21.174;2023-07-20T11:23:38;19.30;99.90
18408;DHT22;9330;52.210;21.174;2023-07-20T11:26:06;19.20;99.90
18408;DHT22;9330;52.210;21.174;2023-07-20T11:28:35;19.30;99.90
18408;DHT22;9330;52.210;21.174;2023-07-20T11:31:02;19.60;99.90
18408;DHT22;9330;52.210;21.174;2023-07-20T11:33:29;19.60;99.90
18408;DHT22;9330;52.210;21.174;2023-07-20T11:35:56;19.70;99.90
18408;DHT22;9330;52.210;21.174;2023-07-20T11:38:24;20.10;99.90
18408;DHT22;9330;52.210;21.174;2023-07-20T11:40:51;20.10;99.90
18408;DHT22;9330;52.210;21.174;2023-07-20T11:43:18;20.30;99.90
18408;DHT22;9330;52.210;21.174;2023-07-20T11:45:50;20.50;99.90
18408;DHT22;9330;52.210;21.174;2023-07-20T11:48:17;21.10;99.90
18408;DHT22;9330;52.210;21.174;2023-07-20T11:50:44;21.10;99.90
18408;DHT22;9330;52.210;21.174;2023-07-20T11:53:11;20.80;99.90
18408;DHT22;9330;52.210;21.174;2023-07-20T11:55:38;20.70;99.90
18408;DHT22;9330;52.210;21.174;2023-07-20T11:58:07;21.00;99.90
18408;DHT22;9330;52.210;21.174;2023-07-20T12:00:35;20.80;99.90
18408;DHT22;9330;52.210;21.174;2023-07-20T12:03:05;20.60;99.90
18408;DHT22;9330;52.210;21.174;2023-07-20T12:05:33;20.60;99.90
18408;DHT22;9330;52.210;21.174;2023-07-20T12:08:00;20.60;99.90
18408;DHT22;9330;52.210;21.174;2023-07-20T12:10:27;21.00;99.90
18408;DHT22;9330;52.210;21.174;2023-07-20T12:13:01;21.40;99.90
18408;DHT22;9330;52.210;21.174;2023-07-20T12:15:29;21.70;99.90
18408;DHT22;9330;52.210;21.174;2023-07-20T12:17:58;21.50;99.90
18408;DHT22;9330;52.210;21.174;2023-07-20T12:20:28;21.40;99.90
18408;DHT22;9330;52.210;21.174;2023-07-20T12:22:59;21.20;99.90
18408;DHT22;9330;52.210;21.174;2023-07-20T12:25:39;21.10;99.90
18408;DHT22;9330;52.210;21.174;2023-07-20T12:28:07;21.30;99.90
18408;DHT22;9330;52.210;21.174;2023-07-20T12:30:34;21.50;99.90
18408;DHT22;9330;52.210;21.174;2023-07-20T12:33:02;22.10;99.90
18408;DHT22;9330;52.210;21.174;2023-07-20T12:35:31;22.00;99.90
18408;DHT22;9330;52.210;21.174;2023-07-20T12:37:58;21.80;99.90
18408;DHT22;9330;52.210;21.174;2023-07-20T12:40:25;21.60;99.90
18408;DHT22;9330;52.210;21.174;2023-07-20T12:42:52;21.90;99.90
18408;DHT22;9330;52.210;21.174;2023-07-20T12:45:19;22.10;99.90
18408;DHT22;9330;52.210;21.174;2023-07-20T12:47:45;22.10;99.90
18408;DHT22;9330;52.210;21.174;2023-07-20T12:50:13;21.80;99.90
18408;DHT22;9330;52.210;21.174;2023-07-20T12:52:41;21.50;99.90
18408;DHT22;9330;52.210;21.174;2023-07-20T12:55:09;21.20;99.90
18408;DHT22;9330;52.210;21.174;2023-07-20T12:57:37;21.10;99.90
18408;DHT22;9330;52.210;21.174;2023-07-20T13:00:06;20.80;99.90
18408;DHT22;9330;52.210;21.174;2023-07-20T13:02:34;20.70;99.90
18408;DHT22;9330;52.210;21.174;2023-07-20T13:05:02;20.70;99.90
18408;DHT22;9330;52.210;21.174;2023-07-20T13:07:30;20.70;99.90
18408;DHT22;9330;52.210;21.174;2023-07-20T13:10:00;20.60;99.90
18408;DHT22;9330;52.210;21.174;2023-07-20T13:12:28;20.60;99.90
18408;DHT22;9330;52.210;21.174;2023-07-20T13:14:56;20.60;99.90
18408;DHT22;9330;52.210;21.174;2023-07-20T13:17:26;20.70;99.90
18408;DHT22;9330;52.210;21.174;2023-07-20T13:19:54;20.60;99.90
18408;DHT22;9330;52.210;21.174;2023-07-20T13:22:21;20.70;99.90
18408;DHT22;9330;52.210;21.174;2023-07-20T13:24:48;20.70;99.90
18408;DHT22;9330;52.210;21.174;2023-07-20T13:27:17;20.80;99.90
18408;DHT22;9330;52.210;21.174;2023-07-20T13:29:44;21.00;99.90
18408;DHT22;9330;52.210;21.174;2023-07-20T13:32:13;21.10;99.90
18408;DHT22;9330;52.210;21.174;2023-07-20T13:34:41;21.20;99.90
18408;DHT22;9330;52.210;21.174;2023-07-20T13:37:08;21.20;99.90
18408;DHT22;9330;52.210;21.174;2023-07-20T13:39:36;21.20;99.90
18408;DHT22;9330;52.210;21.174;2023-07-20T13:42:04;21.10;99.90
18408;DHT22;9330;52.210;21.174;2023-07-20T13:44:32;21.00;99.90
18408;DHT22;9330;52.210;21.174;2023-07-20T13:47:00;21.00;99.90
18408;DHT22;9330;52.210;21.174;2023-07-20T13:49:28;21.00;99.90
18408;DHT22;9330;52.210;21.174;2023-07-20T13:51:55;21.20;99.90
18408;DHT22;9330;52.210;21.174;2023-07-20T13:54:22;21.30;99.90
18408;DHT22;9330;52.210;21.174;2023-07-20T13:56:55;21.30;99.90
18408;DHT22;9330;52.210;21.174;2023-07-20T13:59:23;21.20;99.90
18408;DHT22;9330;52.210;21.174;2023-07-20T14:01:52;21.10;99.90
18408;DHT22;9330;52.210;21.174;2023-07-20T14:04:19;21.10;99.90
18408;DHT22;9330;52.210;21.174;2023-07-20T14:06:46;21.20;99.90
18408;DHT22;9330;52.210;21.174;2023-07-20T14:09:13;21.20;99.90
18408;DHT22;9330;52.210;21.174;2023-07-20T14:11:40;21.20;99.90
18408;DHT22;9330;52.210;21.174;2023-07-20T14:14:07;21.20;99.90
18408;DHT22;9330;52.210;21.174;2023-07-20T14:16:34;21.10;99.90
18408;DHT22;9330;52.210;21.174;2023-07-20T14:19:02;21.00;99.90
18408;DHT22;9330;52.210;21.174;2023-07-20T14:21:30;21.00;99.90
18408;DHT22;9330;52.210;21.174;2023-07-20T14:23:57;21.00;99.90
18408;DHT22;9330;52.210;21.174;2023-07-20T14:26:24;20.90;99.90
18408;DHT22;9330;52.210;21.174;2023-07-20T14:28:51;20.90;99.90
18408;DHT22;9330;52.210;21.174;2023-07-20T14:31:18;20.90;99.90
18408;DHT22;9330;52.210;21.174;2023-07-20T14:33:45;20.80;99.90
18408;DHT22;9330;52.210;21.174;2023-07-20T14:36:13;20.70;99.90
18408;DHT22;9330;52.210;21.174;2023-07-20T14:38:40;20.70;99.90
18408;DHT22;9330;52.210;21.174;2023-07-20T14:41:07;20.70;99.90
18408;DHT22;9330;52.210;21.174;2023-07-20T14:43:34;20.70;99.90
18408;DHT22;9330;52.210;21.174;2023-07-20T14:46:01;20.70;99.90
18408;DHT22;9330;52.210;21.174;2023-07-20T14:48:28;20.70;99.90
18408;DHT22;9330;52.210;21.174;2023-07-20T14:50:54;20.60;99.90
18408;DHT22;9330;52.210;21.174;2023-07-20T14:53:23;20.60;99.90
18408;DHT22;9330;52.210;21.174;2023-07-20T14:55:49;20.40;99.90
18408;DHT22;9330;52.210;21.174;2023-07-20T14:58:16;20.40;99.90
18408;DHT22;9330;52.210;21.174;2023-07-20T15:00:43;20.40;99.90
18408;DHT22;9330;52.210;21.174;2023-07-20T15:03:10;20.40;99.90
18408;DHT22;9330;52.210;21.174;2023-07-20T15:05:37;20.30;99.90
18408;DHT22;9330;52.210;21.174;2023-07-20T15:08:05;20.30;99.90
18408;DHT22;9330;52.210;21.174;2023-07-20T15:10:35;20.30;99.90
18408;DHT22;9330;52.210;21.174;2023-07-20T15:13:01;20.30;99.90
18408;DHT22;9330;52.210;21.174;2023-07-20T15:15:28;20.40;99.90
18408;DHT22;9330;52.210;21.174;2023-07-20T15:17:55;20.40;99.90
18408;DHT22;9330;52.210;21.174;2023-07-20T15:20:22;20.60;99.90
18408;DHT22;9330;52.210;21.174;2023-07-20T15:22:49;20.90;99.90
18408;DHT22;9330;52.210;21.174;2023-07-20T15:25:16;21.20;99.90
18408;DHT22;9330;52.210;21.174;2023-07-20T15:27:44;21.50;99.90
18408;DHT22;9330;52.210;21.174;2023-07-20T15:30:11;21.90;99.90
18408;DHT22;9330;52.210;21.174;2023-07-20T15:32:40;22.30;99.90
18408;DHT22;9330;52.210;21.174;2023-07-20T15:35:09;22.60;99.40
18408;DHT22;9330;52.210;21.174;2023-07-20T15:37:36;22.50;98.10